Acorn, Kentucky
Current Conditions -  °F | °C
As of 5:15 PM on Tuesday 21 Oct 2014 (Local Time) from KSME Reporting Station
Overcast Overcast  
Wind Chill: 55°   Ceiling: 6000
Heat Index: 55°   Visibility: 10mi
Dew Point: 41°   Wind: 12mph
Humidity: 58%   Direction: 20°NNE
Pressure: 30.08"   Gusts: 18mph
Location:  37.0813°N, 84.4741°W
Report Text: KSME 212115Z AUTO 02010G16KT 10SM SCT040 SCT048 OVC060 13/05 A3008 RMK AO2
Loading
Personal Weather Stations






























Interactive Weather Map New forecast layout! Learn more

10-Day Weather Forecast

Advertisements
Track Severe Weather on mobile